createdAt,value
2023-05-06T00:00:58.481Z,82.34
2023-05-06T00:03:24.879Z,82.51
2023-05-06T00:05:51.453Z,82.48
2023-05-06T00:08:17.973Z,82.14
2023-05-06T00:10:45.044Z,81.99
2023-05-06T00:13:12.836Z,82.51
2023-05-06T00:15:40.349Z,82.37
2023-05-06T00:18:07.039Z,82.53
2023-05-06T00:20:33.399Z,82.21
2023-05-06T00:23:00.018Z,82.35
2023-05-06T00:25:26.707Z,82.29
2023-05-06T00:27:54.095Z,82.38
2023-05-06T00:30:20.441Z,82.38
2023-05-06T00:32:46.875Z,82.64
2023-05-06T00:35:13.352Z,82.67
2023-05-06T00:37:39.709Z,82.78
2023-05-06T00:40:06.876Z,83.00
2023-05-06T00:42:33.291Z,82.79
2023-05-06T00:44:59.678Z,82.70
2023-05-06T00:47:26.494Z,82.69
2023-05-06T00:49:52.983Z,82.61
2023-05-06T00:52:19.831Z,82.61
2023-05-06T00:54:46.237Z,82.82
2023-05-06T00:57:12.760Z,83.10
2023-05-06T00:59:39.658Z,83.31
2023-05-06T01:02:06.041Z,83.47
2023-05-06T01:07:33.593Z,83.06
2023-05-06T01:10:20.033Z,82.87
2023-05-06T01:13:03.593Z,83.00
2023-05-06T01:15:58.405Z,83.03
2023-05-06T01:18:26.926Z,83.57
2023-05-06T01:20:54.680Z,83.31
2023-05-06T01:23:21.055Z,83.69
2023-05-06T01:25:47.448Z,83.62
2023-05-06T01:28:13.996Z,83.64
2023-05-06T01:30:55.876Z,83.29
2023-05-06T01:33:48.623Z,83.24
2023-05-06T01:36:39.004Z,83.39
2023-05-06T01:39:18.399Z,83.21
2023-05-06T01:41:48.668Z,82.86
2023-05-06T01:44:16.290Z,82.73
2023-05-06T01:46:45.075Z,82.81
2023-05-06T01:49:12.615Z,82.72
2023-05-06T01:51:39.218Z,82.86
2023-05-06T01:54:05.709Z,82.41
2023-05-06T01:56:32.243Z,82.22
2023-05-06T01:58:59.648Z,82.58
2023-05-06T02:01:26.539Z,82.58
2023-05-06T02:03:53.104Z,82.61
2023-05-06T02:06:19.744Z,82.56
2023-05-06T02:08:46.452Z,82.37
2023-05-06T02:11:12.781Z,82.46
2023-05-06T02:13:39.154Z,82.32
2023-05-06T02:16:05.776Z,81.96
2023-05-06T02:18:32.234Z,82.01
2023-05-06T02:20:58.599Z,81.91
2023-05-06T02:23:24.908Z,81.60
2023-05-06T02:25:51.737Z,81.63
2023-05-06T02:28:18.123Z,81.68
2023-05-06T02:30:44.619Z,81.77
2023-05-06T02:33:11.008Z,81.67
2023-05-06T02:35:37.552Z,81.48
2023-05-06T02:38:04.316Z,81.49
2023-05-06T02:40:30.792Z,81.50
2023-05-06T02:42:57.250Z,81.20
2023-05-06T02:45:23.726Z,81.16
2023-05-06T02:47:50.157Z,81.10
2023-05-06T02:50:16.977Z,81.17
2023-05-06T02:52:43.387Z,81.19
2023-05-06T02:55:10.108Z,81.24
2023-05-06T02:57:36.646Z,81.18
2023-05-06T03:00:03.410Z,81.02
2023-05-06T03:02:29.851Z,81.07
2023-05-06T03:04:56.218Z,81.14
2023-05-06T03:07:22.682Z,81.03
2023-05-06T03:09:49.107Z,81.21
2023-05-06T03:12:15.528Z,81.12
2023-05-06T03:14:41.979Z,80.90
2023-05-06T03:17:08.422Z,81.06
2023-05-06T03:19:34.814Z,81.31
2023-05-06T03:22:01.205Z,80.88
2023-05-06T03:24:27.640Z,80.84
2023-05-06T03:26:54.079Z,80.69
2023-05-06T03:29:20.537Z,80.58
2023-05-06T03:31:50.666Z,80.83
2023-05-06T03:34:17.131Z,80.69
2023-05-06T03:36:43.548Z,80.78
2023-05-06T03:39:10.469Z,80.84
2023-05-06T03:41:36.941Z,80.87
2023-05-06T03:44:03.312Z,80.93
2023-05-06T03:46:29.728Z,80.79
2023-05-06T03:48:56.245Z,80.83
2023-05-06T03:51:22.626Z,80.97
2023-05-06T03:53:49.043Z,80.98
2023-05-06T03:56:18.150Z,81.01
2023-05-06T03:58:44.648Z,80.88
2023-05-06T04:01:10.952Z,81.05
2023-05-06T04:03:37.395Z,80.96
2023-05-06T04:06:04.202Z,81.12
2023-05-06T04:08:30.641Z,81.23
2023-05-06T04:10:57.357Z,81.11
2023-05-06T04:13:23.748Z,81.41
2023-05-06T04:15:50.385Z,81.64
2023-05-06T04:18:19.159Z,81.98
2023-05-06T04:20:47.875Z,82.09
2023-05-06T04:23:14.722Z,82.04
2023-05-06T04:25:42.599Z,82.18
2023-05-06T04:28:11.244Z,82.23
2023-05-06T04:30:37.957Z,82.23
2023-05-06T04:33:04.453Z,82.27
2023-05-06T04:35:31.110Z,82.34
2023-05-06T04:37:57.684Z,82.49
2023-05-06T04:40:26.166Z,82.68
2023-05-06T04:42:52.531Z,82.80
2023-05-06T04:45:18.832Z,82.90
2023-05-06T04:47:45.548Z,82.87
2023-05-06T04:50:12.040Z,83.04
2023-05-06T04:52:38.462Z,83.25
2023-05-06T04:55:05.405Z,83.31
2023-05-06T04:57:32.257Z,83.48
2023-05-06T04:59:58.618Z,83.79
2023-05-06T05:02:25.031Z,83.70
2023-05-06T05:04:51.735Z,83.93
2023-05-06T05:07:18.098Z,83.96
2023-05-06T05:09:45.343Z,84.13
2023-05-06T05:12:11.731Z,84.59
2023-05-06T05:14:38.131Z,84.39
2023-05-06T05:17:04.577Z,84.70
2023-05-06T05:19:30.932Z,84.83
2023-05-06T05:21:57.315Z,85.09
2023-05-06T05:24:23.680Z,85.20
2023-05-06T05:26:50.102Z,85.33
2023-05-06T05:29:16.523Z,85.05
2023-05-06T05:31:42.988Z,84.89
2023-05-06T05:34:09.408Z,84.90
2023-05-06T05:36:35.806Z,85.03
2023-05-06T05:39:02.180Z,84.92
2023-05-06T05:41:28.615Z,84.78
2023-05-06T05:43:55.003Z,85.14
2023-05-06T05:46:21.577Z,85.27
2023-05-06T05:48:47.950Z,85.20
2023-05-06T05:51:14.390Z,85.47
2023-05-06T05:53:40.835Z,85.19
2023-05-06T05:56:07.512Z,85.29
2023-05-06T05:58:34.566Z,85.37
2023-05-06T06:01:01.553Z,85.23
2023-05-06T06:03:27.951Z,85.17
2023-05-06T06:05:55.291Z,85.51
2023-05-06T06:08:21.785Z,85.59
2023-05-06T06:10:48.171Z,85.68
2023-05-06T06:13:14.707Z,85.66
2023-05-06T06:15:41.342Z,85.98
2023-05-06T06:18:08.981Z,85.98
2023-05-06T06:20:36.466Z,85.98
2023-05-06T06:23:02.885Z,85.82
2023-05-06T06:25:29.263Z,85.88
2023-05-06T06:27:56.657Z,86.01
2023-05-06T06:30:23.254Z,86.85
2023-05-06T06:32:51.720Z,87.13
2023-05-06T06:35:19.841Z,87.08
2023-05-06T06:37:46.717Z,87.63
2023-05-06T06:40:13.624Z,87.62
2023-05-06T06:42:39.981Z,87.55
2023-05-06T06:45:09.216Z,87.62
2023-05-06T06:47:36.186Z,87.60
2023-05-06T06:50:02.900Z,87.64
2023-05-06T06:52:29.227Z,87.37
2023-05-06T06:54:55.578Z,87.47
2023-05-06T06:57:21.924Z,87.72
2023-05-06T06:59:50.302Z,87.93
2023-05-06T07:02:16.690Z,88.26
2023-05-06T07:04:43.267Z,88.49
2023-05-06T07:07:09.676Z,88.52
2023-05-06T07:09:36.493Z,88.69
2023-05-06T07:12:04.002Z,88.53
2023-05-06T07:14:30.373Z,88.37
2023-05-06T07:16:56.835Z,88.34
2023-05-06T07:19:23.240Z,88.65
2023-05-06T07:21:49.571Z,88.29
2023-05-06T07:24:15.965Z,88.75
2023-05-06T07:26:42.334Z,88.68
2023-05-06T07:29:08.730Z,88.95
2023-05-06T07:31:35.175Z,88.94
2023-05-06T07:34:01.781Z,88.90
2023-05-06T07:36:28.794Z,89.22
2023-05-06T07:38:55.218Z,89.14
2023-05-06T07:41:21.627Z,88.72
2023-05-06T07:43:47.995Z,88.60
2023-05-06T07:46:14.452Z,89.08
2023-05-06T07:48:40.899Z,89.04
2023-05-06T07:51:07.321Z,89.11
2023-05-06T07:53:33.732Z,89.31
2023-05-06T07:56:02.547Z,89.31
2023-05-06T07:58:30.168Z,89.30
2023-05-06T08:00:56.606Z,89.41
2023-05-06T08:03:23.193Z,89.18
2023-05-06T08:05:51.275Z,89.66
2023-05-06T08:08:21.544Z,89.70
2023-05-06T08:10:47.961Z,89.36
2023-05-06T08:13:14.456Z,89.16
2023-05-06T08:15:41.026Z,89.09
2023-05-06T08:18:20.911Z,89.13
2023-05-06T08:20:48.458Z,89.53
2023-05-06T08:23:14.907Z,89.37
2023-05-06T08:25:41.292Z,89.19
2023-05-06T08:28:07.773Z,89.18
2023-05-06T08:30:34.214Z,89.33
2023-05-06T08:33:02.209Z,89.36
2023-05-06T08:35:28.655Z,89.27
2023-05-06T08:37:55.084Z,89.53
2023-05-06T08:40:23.923Z,89.60
2023-05-06T08:42:50.767Z,89.70
2023-05-06T08:45:17.700Z,89.42
2023-05-06T08:47:44.485Z,89.36
2023-05-06T08:50:11.183Z,89.26
2023-05-06T08:52:39.110Z,89.15
2023-05-06T08:55:07.187Z,88.43
2023-05-06T08:57:34.425Z,87.97
2023-05-06T09:00:01.302Z,88.19
2023-05-06T09:02:28.333Z,87.92
2023-05-06T09:04:56.798Z,87.67
2023-05-06T09:07:24.312Z,87.45
2023-05-06T09:09:51.624Z,87.31
2023-05-06T09:12:18.530Z,87.28
2023-05-06T09:14:46.568Z,87.42
2023-05-06T09:17:24.516Z,87.80
2023-05-06T09:19:52.813Z,87.40
2023-05-06T09:22:22.111Z,86.94
2023-05-06T09:24:58.005Z,86.34
2023-05-06T09:27:29.234Z,86.46
2023-05-06T09:30:11.566Z,86.13
2023-05-06T09:32:39.971Z,86.17
2023-05-06T09:35:08.382Z,86.05
2023-05-06T09:37:35.048Z,86.38
2023-05-06T09:40:01.716Z,86.08
2023-05-06T09:42:29.794Z,86.46
2023-05-06T09:44:59.873Z,85.99
2023-05-06T09:47:32.959Z,85.42
2023-05-06T09:50:01.459Z,85.24
2023-05-06T09:52:28.727Z,86.07
2023-05-06T09:54:55.492Z,85.23
2023-05-06T09:57:22.904Z,85.53
2023-05-06T09:59:52.122Z,85.69
2023-05-06T10:02:19.680Z,85.72
2023-05-06T10:04:48.724Z,84.84
2023-05-06T10:07:19.573Z,84.96
2023-05-06T10:09:46.773Z,84.29
2023-05-06T10:12:13.819Z,84.09
2023-05-06T10:14:40.335Z,82.92
2023-05-06T10:17:09.437Z,82.56
2023-05-06T10:19:40.034Z,82.87
2023-05-06T10:22:27.216Z,82.69
2023-05-06T10:25:05.563Z,81.09
2023-05-06T10:27:35.778Z,80.52
2023-05-06T10:30:02.156Z,80.13
2023-05-06T10:32:32.483Z,79.92
2023-05-06T10:35:08.906Z,79.52
2023-05-06T10:37:37.824Z,79.83
2023-05-06T10:40:05.391Z,80.17
2023-05-06T10:42:35.474Z,78.77
2023-05-06T10:45:03.905Z,78.77
2023-05-06T10:47:56.267Z,79.43
2023-05-06T10:50:24.528Z,78.40
2023-05-06T10:52:59.853Z,77.92
2023-05-06T10:55:27.461Z,77.66
2023-05-06T10:57:56.566Z,77.37
2023-05-06T11:00:23.477Z,77.00
2023-05-06T11:02:57.429Z,76.85
2023-05-06T11:05:24.798Z,76.20
2023-05-06T11:07:52.446Z,75.96
2023-05-06T11:10:34.436Z,74.56
2023-05-06T11:13:19.993Z,74.11
2023-05-06T11:15:46.901Z,73.48
2023-05-06T11:18:25.444Z,73.17
2023-05-06T11:21:12.606Z,73.23
2023-05-06T11:24:08.263Z,71.00
2023-05-06T11:26:35.025Z,71.60
2023-05-06T11:29:04.012Z,71.69
2023-05-06T11:31:38.465Z,72.14
2023-05-06T11:34:09.002Z,71.35
2023-05-06T11:36:37.209Z,72.31
2023-05-06T11:39:09.526Z,72.43
2023-05-06T11:41:39.672Z,73.00
2023-05-06T11:44:06.440Z,72.07
2023-05-06T11:46:33.524Z,71.60
2023-05-06T11:49:00.645Z,71.05
2023-05-06T11:51:27.270Z,71.64
2023-05-06T11:54:10.888Z,71.65
2023-05-06T11:56:48.683Z,72.42
2023-05-06T11:59:15.553Z,72.18
2023-05-06T12:01:43.402Z,72.19
2023-05-06T12:04:11.012Z,71.80
2023-05-06T12:06:38.261Z,71.72
2023-05-06T12:09:06.982Z,71.73
2023-05-06T12:11:34.946Z,69.57
2023-05-06T12:14:04.960Z,69.31
2023-05-06T12:16:31.832Z,69.78
2023-05-06T12:18:58.255Z,67.79
2023-05-06T12:21:25.083Z,67.51
2023-05-06T12:23:59.407Z,69.28
2023-05-06T12:26:30.466Z,70.15
2023-05-06T12:29:08.883Z,70.63
2023-05-06T12:31:35.736Z,70.88
2023-05-06T12:34:03.154Z,70.81
2023-05-06T12:36:30.622Z,70.89
2023-05-06T12:38:59.353Z,69.54
2023-05-06T12:41:42.656Z,66.85
2023-05-06T12:44:38.125Z,68.47
2023-05-06T12:47:09.538Z,67.91
2023-05-06T12:49:57.896Z,66.96
2023-05-06T12:52:27.429Z,66.27
2023-05-06T12:54:54.102Z,66.25
2023-05-06T12:57:21.042Z,64.87
2023-05-06T12:59:49.262Z,65.87
2023-05-06T13:02:16.104Z,65.07
2023-05-06T13:07:22.426Z,65.73
2023-05-06T13:09:48.914Z,64.73
2023-05-06T13:12:15.315Z,64.99
2023-05-06T13:14:41.720Z,65.22
2023-05-06T13:17:08.651Z,66.77
2023-05-06T13:19:35.121Z,64.23
2023-05-06T13:22:01.968Z,63.92
2023-05-06T13:24:29.092Z,65.11
2023-05-06T13:26:56.921Z,64.38
2023-05-06T13:29:23.748Z,64.80
2023-05-06T13:31:50.955Z,65.34
2023-05-06T13:34:17.456Z,64.00
2023-05-06T13:36:43.891Z,65.10
2023-05-06T13:39:10.221Z,64.78
2023-05-06T13:41:36.598Z,63.17
2023-05-06T13:44:03.491Z,63.86
2023-05-06T13:46:30.066Z,63.48
2023-05-06T13:48:56.438Z,64.89
2023-05-06T13:51:22.859Z,63.81
2023-05-06T13:53:49.211Z,64.51
2023-05-06T13:56:15.619Z,64.94
2023-05-06T13:58:41.973Z,64.25
2023-05-06T14:01:08.349Z,62.02
2023-05-06T14:03:34.771Z,62.06
2023-05-06T14:06:01.353Z,62.24
2023-05-06T14:08:27.758Z,61.31
2023-05-06T14:10:54.191Z,60.96
2023-05-06T14:13:20.727Z,61.75
2023-05-06T14:15:47.311Z,60.66
2023-05-06T14:18:13.841Z,61.29
2023-05-06T14:20:40.243Z,59.86
2023-05-06T14:23:06.951Z,59.62
2023-05-06T14:25:33.523Z,60.27
2023-05-06T14:28:00.152Z,59.46
2023-05-06T14:30:26.694Z,60.22
2023-05-06T14:32:53.120Z,59.77
2023-05-06T14:35:19.640Z,60.92
2023-05-06T14:37:46.154Z,59.90
2023-05-06T14:40:13.033Z,60.18
2023-05-06T14:42:39.378Z,58.49
2023-05-06T14:45:06.823Z,59.06
2023-05-06T14:47:33.224Z,59.64
2023-05-06T14:49:59.838Z,56.98
2023-05-06T14:52:26.265Z,57.64
2023-05-06T14:54:52.618Z,57.02
2023-05-06T14:57:19.025Z,57.82
2023-05-06T14:59:46.051Z,57.44
2023-05-06T15:02:12.463Z,57.18
2023-05-06T15:04:38.817Z,57.59
2023-05-06T15:07:05.326Z,56.97
2023-05-06T15:09:31.958Z,58.24
2023-05-06T15:11:58.494Z,57.48
2023-05-06T15:14:24.903Z,57.24
2023-05-06T15:16:56.855Z,58.56
2023-05-06T15:19:23.738Z,57.88
2023-05-06T15:21:50.573Z,58.98
2023-05-06T15:24:17.100Z,59.07
2023-05-06T15:26:43.540Z,58.87
2023-05-06T15:29:09.930Z,58.87
2023-05-06T15:31:39.136Z,60.12
2023-05-06T15:34:06.893Z,59.33
2023-05-06T15:36:33.413Z,58.55
2023-05-06T15:39:01.034Z,59.10
2023-05-06T15:41:38.263Z,59.99
2023-05-06T15:44:06.100Z,59.19
2023-05-06T15:46:33.306Z,60.29
2023-05-06T15:49:15.762Z,60.00
2023-05-06T15:51:46.732Z,60.72
2023-05-06T15:54:15.352Z,59.38
2023-05-06T15:56:41.869Z,59.44
2023-05-06T15:59:08.641Z,59.69
2023-05-06T16:01:57.361Z,59.62
2023-05-06T16:04:22.073Z,60.06
2023-05-06T16:06:49.206Z,59.33
2023-05-06T16:09:15.601Z,60.07
2023-05-06T16:11:41.922Z,59.89
2023-05-06T16:14:08.341Z,59.65
2023-05-06T16:16:34.945Z,59.41
2023-05-06T16:19:01.545Z,60.03
2023-05-06T16:21:28.537Z,61.12
2023-05-06T16:23:54.988Z,60.51
2023-05-06T16:26:21.440Z,59.83
2023-05-06T16:28:47.903Z,60.32
2023-05-06T16:31:14.423Z,60.41
2023-05-06T16:33:40.975Z,59.50
2023-05-06T16:36:07.834Z,60.41
2023-05-06T16:38:34.232Z,59.15
2023-05-06T16:41:00.830Z,59.31
2023-05-06T16:43:27.161Z,59.59
2023-05-06T16:45:53.494Z,59.25
2023-05-06T16:48:19.929Z,59.98
2023-05-06T16:50:46.523Z,58.97
2023-05-06T16:53:13.110Z,58.67
2023-05-06T16:55:39.741Z,59.23
2023-05-06T16:58:06.344Z,59.36
2023-05-06T17:00:32.883Z,59.41
2023-05-06T17:02:59.431Z,60.19
2023-05-06T17:05:27.958Z,60.59
2023-05-06T17:07:54.413Z,61.16
2023-05-06T17:10:21.889Z,59.93
2023-05-06T17:12:48.251Z,60.44
2023-05-06T17:15:14.659Z,60.96
2023-05-06T17:17:41.113Z,59.79
2023-05-06T17:20:08.432Z,59.89
2023-05-06T17:22:34.899Z,59.48
2023-05-06T17:25:01.270Z,60.29
2023-05-06T17:27:27.626Z,61.30
2023-05-06T17:29:53.951Z,61.31
2023-05-06T17:32:20.653Z,62.53
2023-05-06T17:34:47.035Z,62.84
2023-05-06T17:37:13.394Z,63.54
2023-05-06T17:39:39.818Z,62.80
2023-05-06T17:42:06.325Z,61.75
2023-05-06T17:44:35.199Z,61.87
2023-05-06T17:47:01.703Z,61.81
2023-05-06T17:49:28.205Z,65.24
2023-05-06T17:51:55.962Z,65.36
2023-05-06T17:54:22.572Z,67.06
2023-05-06T17:56:52.864Z,68.58
2023-05-06T17:59:20.045Z,69.97
2023-05-06T18:01:46.863Z,70.65
2023-05-06T18:04:13.932Z,71.11
2023-05-06T18:06:41.791Z,71.76
2023-05-06T18:09:10.185Z,71.62
2023-05-06T18:11:37.985Z,72.16
2023-05-06T18:14:05.368Z,72.95
2023-05-06T18:16:31.785Z,74.22
2023-05-06T18:19:00.636Z,74.66
2023-05-06T18:21:27.675Z,75.00
2023-05-06T18:24:01.895Z,75.71
2023-05-06T18:26:43.875Z,75.89
2023-05-06T18:29:11.838Z,76.26
2023-05-06T18:31:38.311Z,76.92
2023-05-06T18:34:04.762Z,77.32
2023-05-06T18:36:31.147Z,77.61
2023-05-06T18:38:57.598Z,77.62
2023-05-06T18:41:24.960Z,77.95
2023-05-06T18:43:51.353Z,78.45
2023-05-06T18:46:17.798Z,78.53
2023-05-06T18:48:44.274Z,78.20
2023-05-06T18:51:15.710Z,78.08
2023-05-06T18:53:43.136Z,78.55
2023-05-06T18:56:10.574Z,78.71
2023-05-06T18:58:38.460Z,78.83
2023-05-06T19:01:10.998Z,78.90
2023-05-06T19:03:38.337Z,78.83
2023-05-06T19:06:08.086Z,78.73
2023-05-06T19:08:35.289Z,78.92
2023-05-06T19:11:02.430Z,79.18
2023-05-06T19:13:28.893Z,79.13
2023-05-06T19:15:56.016Z,79.09
2023-05-06T19:18:22.469Z,79.18
2023-05-06T19:20:48.808Z,78.92
2023-05-06T19:23:15.126Z,79.05
2023-05-06T19:25:41.521Z,79.10
2023-05-06T19:28:09.453Z,79.18
2023-05-06T19:30:36.173Z,79.01
2023-05-06T19:33:03.394Z,79.92
2023-05-06T19:35:30.208Z,80.04
2023-05-06T19:37:56.667Z,80.11
2023-05-06T19:40:23.300Z,80.04
2023-05-06T19:42:49.680Z,79.98
2023-05-06T19:45:18.133Z,80.09
2023-05-06T19:47:45.728Z,80.15
2023-05-06T19:50:12.875Z,80.14
2023-05-06T19:52:39.555Z,80.45
2023-05-06T19:55:06.491Z,80.47
2023-05-06T19:57:33.828Z,80.70
2023-05-06T20:00:00.336Z,80.52
2023-05-06T20:02:26.830Z,80.31
2023-05-06T20:04:53.228Z,80.28
2023-05-06T20:07:20.957Z,80.52
2023-05-06T20:09:47.552Z,80.58
2023-05-06T20:12:13.993Z,79.62
2023-05-06T20:14:40.532Z,79.98
2023-05-06T20:17:06.872Z,80.14
2023-05-06T20:19:33.215Z,80.12
2023-05-06T20:22:00.259Z,80.93
2023-05-06T20:24:29.448Z,81.41
2023-05-06T20:26:56.235Z,81.17
2023-05-06T20:29:22.622Z,81.02
2023-05-06T20:31:49.100Z,80.70
2023-05-06T20:34:15.483Z,80.39
2023-05-06T20:36:42.967Z,79.86
2023-05-06T20:39:12.768Z,79.86
2023-05-06T20:41:39.141Z,79.95
2023-05-06T20:44:05.680Z,79.89
2023-05-06T20:46:32.927Z,79.81
2023-05-06T20:48:59.886Z,80.50
2023-05-06T20:51:27.616Z,80.44
2023-05-06T20:53:58.329Z,80.32
2023-05-06T20:56:26.204Z,80.34
2023-05-06T20:58:53.687Z,80.21
2023-05-06T21:01:21.882Z,80.99
2023-05-06T21:03:49.058Z,81.19
2023-05-06T21:06:17.056Z,81.39
2023-05-06T21:08:44.637Z,81.58
2023-05-06T21:11:11.137Z,81.55
2023-05-06T21:13:37.640Z,81.63
2023-05-06T21:16:04.504Z,81.66
2023-05-06T21:18:31.018Z,81.62
2023-05-06T21:20:57.651Z,81.99
2023-05-06T21:23:24.069Z,82.26
2023-05-06T21:25:50.399Z,82.30
2023-05-06T21:28:16.806Z,82.28
2023-05-06T21:30:43.181Z,82.33
2023-05-06T21:33:11.127Z,82.53
2023-05-06T21:35:37.809Z,82.66
2023-05-06T21:38:04.192Z,82.50
2023-05-06T21:40:30.599Z,82.40
2023-05-06T21:42:57.004Z,82.39
2023-05-06T21:45:23.446Z,82.23
2023-05-06T21:47:49.973Z,82.14
2023-05-06T21:50:16.403Z,82.08
2023-05-06T21:52:42.846Z,81.96
2023-05-06T21:55:09.610Z,81.66
2023-05-06T21:57:36.121Z,81.64
2023-05-06T22:00:08.625Z,81.30
2023-05-06T22:02:35.163Z,81.26
2023-05-06T22:05:01.616Z,81.17
2023-05-06T22:07:28.006Z,81.06
2023-05-06T22:09:54.412Z,80.92
2023-05-06T22:12:20.767Z,80.89
2023-05-06T22:14:47.118Z,80.97
2023-05-06T22:17:13.577Z,81.03
2023-05-06T22:19:40.770Z,80.97
2023-05-06T22:22:07.824Z,80.98
2023-05-06T22:24:34.266Z,81.03
2023-05-06T22:27:01.599Z,81.07
2023-05-06T22:29:27.989Z,80.94
2023-05-06T22:31:54.390Z,80.94
2023-05-06T22:34:20.840Z,80.95
2023-05-06T22:36:47.361Z,80.79
2023-05-06T22:39:13.848Z,80.78
2023-05-06T22:41:40.213Z,80.79
2023-05-06T22:44:06.663Z,80.73
2023-05-06T22:46:33.174Z,80.72
2023-05-06T22:49:00.098Z,80.76
2023-05-06T22:51:26.578Z,80.84
2023-05-06T22:53:53.039Z,81.20
2023-05-06T22:56:20.002Z,81.15
2023-05-06T22:58:46.404Z,81.04
2023-05-06T23:01:12.903Z,80.91
2023-05-06T23:03:39.365Z,80.76
2023-05-06T23:06:06.037Z,80.99
2023-05-06T23:08:32.667Z,80.91
2023-05-06T23:10:59.227Z,80.78
2023-05-06T23:13:26.440Z,80.69
2023-05-06T23:15:53.028Z,80.72
2023-05-06T23:18:20.528Z,80.71
2023-05-06T23:20:46.965Z,80.74
2023-05-06T23:23:13.362Z,80.69
2023-05-06T23:25:39.793Z,80.78
2023-05-06T23:28:06.252Z,80.43
2023-05-06T23:30:32.649Z,80.35
2023-05-06T23:32:59.130Z,80.41
2023-05-06T23:35:25.954Z,80.43
2023-05-06T23:37:52.371Z,80.36
2023-05-06T23:40:18.744Z,80.01
2023-05-06T23:42:45.173Z,80.31
2023-05-06T23:45:12.041Z,80.12
2023-05-06T23:47:38.661Z,80.15
2023-05-06T23:50:05.505Z,80.27
2023-05-06T23:52:31.887Z,80.19
2023-05-06T23:54:58.234Z,80.31
2023-05-06T23:57:24.631Z,80.23
2023-05-06T23:59:51.142Z,80.22
